Time;durP1;ratioP1;P1;durP2;ratioP2;P2;SDS_P1;SDS_P2;PMS_P1;PMS_P2;Temp;Humidity;BMP_temperature;BMP_pressure;BME280_temperature;BME280_humidity;BME280_pressure;Samples;Min_cycle;Max_cycle;Signal;HPM_P1;HPM_P2
2021/10/01 00:00:43;;;;;;;4.95;2.28;;;;;;;11.71;66.63;100357.00;4996059;28;20407;-64
2021/10/01 00:03:38;;;;;;;6.45;2.17;;;;;;;11.71;66.84;100353.53;4996265;28;20061;-64
2021/10/01 00:06:30;;;;;;;6.45;2.58;;;;;;;11.70;67.01;100355.25;4994582;28;20118;-63
2021/10/01 00:09:22;;;;;;;3.50;1.85;;;;;;;11.70;66.66;100349.19;4994162;28;20516;-63
2021/10/01 00:12:14;;;;;;;5.93;2.13;;;;;;;11.70;66.64;100351.78;4995730;28;20482;-63
2021/10/01 00:15:12;;;;;;;6.32;2.83;;;;;;;11.68;66.92;100349.16;4995486;28;20096;-63
2021/10/01 00:17:59;;;;;;;5.78;1.95;;;;;;;11.68;67.10;100343.97;4994804;28;20100;-62
2021/10/01 00:20:43;;;;;;;13.05;2.33;;;;;;;11.67;66.82;100350.03;4995455;28;20054;-63
2021/10/01 00:23:41;;;;;;;4.93;1.88;;;;;;;11.67;66.53;100336.16;4994209;28;20474;-63
2021/10/01 00:26:35;;;;;;;10.43;2.60;;;;;;;11.66;66.76;100331.81;4995031;28;20053;-63
2021/10/01 00:29:33;;;;;;;5.05;1.70;;;;;;;11.66;66.63;100331.81;4995098;28;20092;-63
2021/10/01 00:32:30;;;;;;;4.25;1.88;;;;;;;11.66;66.54;100330.09;4993995;28;20576;-63
2021/10/01 00:35:23;;;;;;;7.57;2.03;;;;;;;11.64;66.81;100318.81;4994703;28;20426;-63
2021/10/01 00:38:21;;;;;;;6.13;2.22;;;;;;;11.66;66.81;100321.44;4994723;28;20061;-62
2021/10/01 00:41:05;;;;;;;5.72;2.00;;;;;;;11.67;66.67;100323.19;4994016;28;20045;-63
2021/10/01 00:43:52;;;;;;;6.15;1.73;;;;;;;11.65;66.67;100315.38;4994899;28;20068;-63
2021/10/01 00:46:50;;;;;;;3.13;1.80;;;;;;;11.65;66.66;100314.50;4994633;28;20141;-63
2021/10/01 00:49:45;;;;;;;9.57;1.88;;;;;;;11.64;66.74;100321.41;4994853;28;20065;-63
2021/10/01 00:52:40;;;;;;;6.75;2.17;;;;;;;11.65;66.84;100317.97;4994251;28;20056;-63
2021/10/01 00:55:35;;;;;;;6.05;1.63;;;;;;;11.65;66.32;100306.69;4994202;28;20057;-64
2021/10/01 00:58:33;;;;;;;4.90;2.20;;;;;;;11.63;66.34;100293.72;4993793;28;20077;-63
2021/10/01 01:01:25;;;;;;;17.65;2.78;;;;;;;11.62;66.34;100299.75;4992734;28;20069;-63
2021/10/01 01:04:10;;;;;;;3.55;2.05;;;;;;;11.63;66.67;100301.50;4993757;28;20073;-63
2021/10/01 01:07:00;;;;;;;3.88;2.13;;;;;;;11.63;66.33;100300.59;4993616;28;20093;-63
2021/10/01 01:09:56;;;;;;;5.40;2.03;;;;;;;11.63;66.39;100292.81;4993805;28;20405;-63
2021/10/01 01:13:02;;;;;;;3.38;2.05;;;;;;;11.62;66.24;100293.66;4994670;28;20046;-64
2021/10/01 01:16:05;;;;;;;6.45;2.25;;;;;;;11.62;66.37;100288.47;4993907;28;20081;-62
2021/10/01 01:19:04;;;;;;;3.65;1.80;;;;;;;11.61;66.28;100292.81;4994319;28;20065;-63
2021/10/01 01:22:15;;;;;;;6.82;2.00;;;;;;;11.60;66.30;100290.19;4993215;28;20045;-62
2021/10/01 01:25:36;;;;;;;10.07;1.95;;;;;;;11.58;66.23;100288.44;4993695;28;20069;-63
2021/10/01 01:28:39;;;;;;;3.97;1.80;;;;;;;11.58;66.34;100278.06;4993036;28;20053;-64
2021/10/01 01:31:44;;;;;;;3.72;1.92;;;;;;;11.58;66.04;100284.97;4994246;28;20121;-64
2021/10/01 01:34:39;;;;;;;3.10;1.55;;;;;;;11.57;66.24;100280.63;4994237;28;20057;-63
2021/10/01 01:37:58;;;;;;;5.43;1.92;;;;;;;11.57;66.45;100283.22;4992874;28;20041;-63
2021/10/01 01:40:52;;;;;;;5.35;2.08;;;;;;;11.57;66.05;100280.63;4994165;28;20486;-63
2021/10/01 01:43:49;;;;;;;3.15;2.03;;;;;;;11.59;66.48;100278.94;4994193;28;20109;-63
2021/10/01 01:46:45;;;;;;;3.78;2.42;;;;;;;11.57;66.04;100275.44;4993037;28;20414;-63
2021/10/01 01:49:35;;;;;;;5.65;2.38;;;;;;;11.58;66.29;100278.06;4993358;28;20077;-63
2021/10/01 01:52:21;;;;;;;3.33;2.40;;;;;;;11.59;66.49;100263.34;4993927;28;20052;-64
2021/10/01 01:55:06;;;;;;;4.75;2.10;;;;;;;11.60;66.44;100267.69;4994356;28;20105;-63
2021/10/01 01:57:52;;;;;;;6.35;1.92;;;;;;;11.60;66.29;100264.25;4993272;28;20077;-63
2021/10/01 02:00:50;;;;;;;4.85;1.77;;;;;;;11.58;66.37;100267.69;4994092;28;20053;-62
2021/10/01 02:03:46;;;;;;;5.13;2.40;;;;;;;11.57;66.42;100252.06;4993698;28;20519;-63
2021/10/01 02:06:31;;;;;;;5.72;2.03;;;;;;;11.58;66.03;100262.50;4993473;28;20093;-63
2021/10/01 02:09:27;;;;;;;;;;;;;;;11.56;66.33;100259.00;4994218;28;20133;-63
2021/10/01 02:12:23;;;;;;;4.22;1.83;;;;;;;11.54;66.63;100246.81;4994533;28;20321;-63
2021/10/01 02:15:17;;;;;;;5.70;2.38;;;;;;;11.53;66.12;100239.88;4998034;28;20061;-63
2021/10/01 02:18:13;;;;;;;4.13;2.30;;;;;;;11.52;65.97;100239.03;4997039;28;20049;-63
2021/10/01 02:20:58;;;;;;;2.42;1.60;;;;;;;11.51;66.41;100239.88;4997646;28;20057;-63
2021/10/01 02:23:54;;;;;;;4.25;2.28;;;;;;;11.52;66.10;100235.56;4997552;28;20108;-63
2021/10/01 02:27:00;;;;;;;6.82;2.33;;;;;;;11.53;66.11;100239.88;4997609;28;20085;-63
2021/10/01 02:30:08;;;;;;;10.05;1.90;;;;;;;11.52;65.94;100235.56;4997593;28;20105;-62
2021/10/01 02:33:07;;;;;;;4.65;1.80;;;;;;;11.52;66.19;100231.25;4997705;28;20049;-62
2021/10/01 02:35:59;;;;;;;3.75;2.22;;;;;;;11.52;66.19;100227.78;4996987;28;20088;-62
2021/10/01 02:38:58;;;;;;;7.63;2.72;;;;;;;11.52;66.22;100226.03;4997685;28;20046;-63
2021/10/01 02:41:50;;;;;;;4.53;2.45;;;;;;;11.52;66.09;100218.25;4996495;28;20054;-63
2021/10/01 02:44:36;;;;;;;2.78;2.08;;;;;;;11.52;66.40;100226.03;4996220;28;20492;-63
2021/10/01 02:47:26;;;;;;;6.05;1.90;;;;;;;11.51;66.03;100213.91;4996137;28;20061;-63
2021/10/01 02:50:22;;;;;;;3.25;2.10;;;;;;;11.51;65.99;100216.50;4996863;28;20064;-62
2021/10/01 02:53:37;;;;;;;7.65;2.25;;;;;;;11.51;65.96;100213.91;4997130;28;20567;-63
2021/10/01 02:56:38;;;;;;;5.43;2.90;;;;;;;11.50;66.30;100217.34;4996603;28;20100;-62
2021/10/01 02:59:39;;;;;;;2.22;1.50;;;;;;;11.51;65.97;100218.25;4996734;28;20046;-63
2021/10/01 03:02:36;;;;;;;2.63;1.80;;;;;;;11.49;66.27;100207.81;4996704;28;20104;-63
2021/10/01 03:05:26;;;;;;;5.03;2.10;;;;;;;11.50;65.83;100200.94;4996788;28;20057;-62
2021/10/01 03:08:11;;;;;;;4.68;2.55;;;;;;;11.49;66.01;100201.78;4996972;28;20065;-63
2021/10/01 03:11:10;;;;;;;5.13;1.80;;;;;;;11.49;66.04;100199.19;4996290;28;20157;-62
2021/10/01 03:14:07;;;;;;;5.88;2.28;;;;;;;11.49;65.97;100201.78;4995865;28;20517;-63
2021/10/01 03:17:03;;;;;;;4.60;2.25;;;;;;;11.48;66.24;100193.09;4996310;28;20101;-63
2021/10/01 03:20:00;;;;;;;6.45;2.10;;;;;;;11.46;65.96;100188.75;4996540;28;20057;-63
2021/10/01 03:22:57;;;;;;;3.72;1.75;;;;;;;11.44;65.97;100186.16;4996268;28;20049;-63
2021/10/01 03:25:52;;;;;;;4.00;2.13;;;;;;;11.43;66.30;100179.22;4995389;28;20125;-63
2021/10/01 03:28:37;;;;;;;3.20;1.90;;;;;;;11.41;65.98;100173.97;4995703;28;20516;-62
2021/10/01 03:31:24;;;;;;;2.75;1.95;;;;;;;11.42;65.96;100177.47;4996667;28;20466;-62
2021/10/01 03:34:22;;;;;;;5.90;2.22;;;;;;;11.41;66.02;100178.31;4996308;28;20101;-63
2021/10/01 03:37:17;;;;;;;9.43;2.53;;;;;;;11.40;66.22;100180.00;4995068;28;20065;-63
2021/10/01 03:40:17;;;;;;;4.32;1.98;;;;;;;11.39;65.95;100182.59;4996427;28;20088;-63
2021/10/01 03:43:09;;;;;;;5.47;1.95;;;;;;;11.38;65.85;100179.13;4996051;28;20129;-63
2021/10/01 03:45:58;;;;;;;6.70;2.20;;;;;;;11.38;65.88;100167.88;4996350;28;20533;-63
2021/10/01 03:48:53;;;;;;;3.92;2.15;;;;;;;11.37;65.83;100174.78;4996075;28;20536;-63
2021/10/01 03:51:37;;;;;;;5.10;1.85;;;;;;;11.37;66.24;100169.59;4996330;28;20132;-63
2021/10/01 03:54:21;;;;;;;6.60;1.85;;;;;;;11.38;66.15;100160.09;4996039;28;20101;-62
2021/10/01 03:57:13;;;;;;;;;;;;;;;11.35;65.74;100158.34;4996588;28;20057;-65
2021/10/01 04:00:08;;;;;;;6.60;2.25;;;;;;;11.35;65.73;100152.25;4995162;28;19964;-63
2021/10/01 04:03:06;;;;;;;4.13;2.17;;;;;;;11.36;66.08;100152.31;4994664;28;20065;-63
2021/10/01 04:06:04;;;;;;;4.60;2.63;;;;;;;11.34;66.13;100154.00;4994929;28;20532;-62
2021/10/01 04:09:02;;;;;;;3.05;1.90;;;;;;;11.33;66.04;100144.47;4995648;28;20104;-63
2021/10/01 04:11:58;;;;;;;3.75;1.90;;;;;;;11.32;66.29;100144.41;4994498;28;20041;-62
2021/10/01 04:14:44;;;;;;;4.32;1.80;;;;;;;11.33;65.93;100140.97;4995203;28;20054;-63
2021/10/01 04:17:29;;;;;;;3.75;1.80;;;;;;;11.33;66.02;100139.28;4994980;28;20044;-62
2021/10/01 04:20:13;;;;;;;3.63;1.95;;;;;;;11.31;66.03;100128.00;4994774;28;20565;-62
2021/10/01 04:23:10;;;;;;;2.47;1.67;;;;;;;11.34;65.86;100128.03;4995120;28;20070;-63
2021/10/01 04:26:05;;;;;;;7.82;2.00;;;;;;;11.32;66.09;100124.56;4995242;28;20048;-63
2021/10/01 04:29:03;;;;;;;3.88;2.05;;;;;;;11.32;66.07;100128.84;4995234;28;20053;-62
2021/10/01 04:31:58;;;;;;;7.65;2.25;;;;;;;11.30;65.94;100120.16;4994752;28;20049;-63
2021/10/01 04:35:00;;;;;;;;;;;;;;;11.28;66.14;100122.75;4994901;28;20104;-63
2021/10/01 04:37:55;;;;;;;4.95;2.30;;;;;;;11.27;65.83;100121.00;4994281;28;20346;-62
2021/10/01 04:40:49;;;;;;;6.32;2.88;;;;;;;11.27;66.20;100116.72;4993677;28;20098;-63
2021/10/01 04:43:33;;;;;;;5.10;2.58;;;;;;;11.27;65.90;100106.34;4994991;28;20045;-63
2021/10/01 04:46:17;;;;;;;6.20;2.25;;;;;;;11.27;66.13;100102.84;4994216;28;20091;-64
2021/10/01 04:49:03;;;;;;;10.43;2.58;;;;;;;11.27;66.07;100101.16;4994479;28;20061;-63
2021/10/01 04:51:55;;;;;;;3.08;1.80;;;;;;;11.27;66.00;100095.06;4993787;28;20050;-63
2021/10/01 04:54:54;;;;;;;4.55;1.95;;;;;;;11.26;65.93;100095.91;4993836;28;20049;-63
2021/10/01 04:57:48;;;;;;;3.03;1.70;;;;;;;11.24;66.08;100090.72;4993684;28;20041;-63
2021/10/01 05:00:43;;;;;;;5.53;1.58;;;;;;;11.23;65.83;100091.56;4994366;28;20053;-62
2021/10/01 05:03:36;;;;;;;5.45;2.78;;;;;;;11.22;65.74;100084.63;4994168;28;20069;-63
2021/10/01 05:06:30;;;;;;;2.00;1.80;;;;;;;11.22;66.05;100086.34;4993627;28;20053;-63
2021/10/01 05:09:14;;;;;;;5.47;2.22;;;;;;;11.23;66.34;100095.88;4994257;28;20079;-63
2021/10/01 05:12:06;;;;;;;4.75;1.90;;;;;;;11.22;65.93;100087.22;4993367;28;20168;-63
2021/10/01 05:15:01;;;;;;;4.72;1.80;;;;;;;11.23;65.70;100090.69;4994428;28;20112;-63
2021/10/01 05:17:56;;;;;;;4.78;1.83;;;;;;;11.23;66.20;100088.97;4993703;28;20037;-63
2021/10/01 05:20:51;;;;;;;4.32;2.22;;;;;;;11.22;65.83;100078.56;4994173;28;20101;-63
2021/10/01 05:23:48;;;;;;;8.32;1.90;;;;;;;11.21;65.87;100084.63;4993482;28;20524;-63
2021/10/01 05:26:42;;;;;;;3.22;1.83;;;;;;;11.21;65.64;100085.47;4994201;28;20410;-63
2021/10/01 05:29:28;;;;;;;4.25;2.00;;;;;;;11.23;65.77;100078.59;4993419;28;20057;-62
2021/10/01 05:32:18;;;;;;;9.00;2.45;;;;;;;11.19;65.62;100074.19;4994031;28;20119;-63
2021/10/01 05:35:03;;;;;;;9.30;1.90;;;;;;;11.21;65.96;100072.50;4993975;28;20056;-63
2021/10/01 05:37:55;;;;;;;3.67;2.20;;;;;;;11.21;65.92;100067.31;4993715;28;20077;-63
2021/10/01 05:40:51;;;;;;;9.75;2.45;;;;;;;11.21;65.70;100067.31;4993075;28;20467;-63
2021/10/01 05:43:38;;;;;;;5.38;2.40;;;;;;;11.23;65.79;100073.41;4993412;28;20104;-62
2021/10/01 05:46:33;;;;;;;5.70;1.85;;;;;;;11.22;66.18;100069.06;4993244;28;20112;-63
2021/10/01 05:49:28;;;;;;;4.75;1.98;;;;;;;11.22;65.82;100069.06;4993419;28;20049;-64
2021/10/01 05:55:08;;;;;;;3.40;2.00;;;;;;;11.21;65.57;100064.72;4994102;28;20532;-63
2021/10/01 05:58:00;;;;;;;8.23;1.80;;;;;;;11.25;65.55;100065.63;4994250;28;20069;-63
2021/10/01 06:00:46;;;;;;;6.32;2.08;;;;;;;11.25;65.80;100068.22;4993749;28;20057;-63
2021/10/01 06:03:38;;;;;;;4.05;1.80;;;;;;;11.26;65.84;100067.38;4993998;28;20414;-63
2021/10/01 06:06:34;;;;;;;7.97;2.15;;;;;;;11.26;65.72;100072.56;4992807;28;20053;-63
2021/10/01 06:09:25;;;;;;;4.38;1.90;;;;;;;11.25;65.93;100068.22;4992866;28;20053;-63
2021/10/01 06:12:21;;;;;;;5.10;1.95;;;;;;;11.26;65.80;100069.97;4993995;28;20076;-63
2021/10/01 06:15:19;;;;;;;3.42;1.50;;;;;;;11.26;66.02;100065.66;4993395;28;20113;-64
2021/10/01 06:18:12;;;;;;;6.03;2.70;;;;;;;11.26;65.92;100060.47;4993533;28;20134;-63
2021/10/01 06:20:56;;;;;;;7.20;2.70;;;;;;;11.25;65.58;100061.34;4993130;28;20068;-63
2021/10/01 06:23:40;;;;;;;3.55;1.80;;;;;;;11.25;65.87;100056.16;4993829;28;20049;-63
2021/10/01 06:26:34;;;;;;;4.50;2.75;;;;;;;11.26;65.89;100057.00;4993705;28;20108;-63
2021/10/01 06:29:27;;;;;;;;;;;;;;;11.26;65.91;100062.19;4993027;28;20044;-63
2021/10/01 06:32:14;;;;;;;2.67;1.70;;;;;;;11.26;65.60;100063.06;4993253;28;19920;-62
2021/10/01 06:35:03;;;;;;;7.70;2.08;;;;;;;11.26;65.64;100051.81;4993787;28;20053;-62
2021/10/01 06:37:56;;;;;;;5.05;1.80;;;;;;;11.27;65.95;100053.56;4992484;28;20085;-63
2021/10/01 06:40:41;;;;;;;6.80;1.90;;;;;;;11.27;65.90;100050.97;4993346;28;20110;-63
2021/10/01 06:43:39;;;;;;;2.92;2.08;;;;;;;11.27;65.68;100049.25;4993262;28;20049;-62
2021/10/01 06:46:37;;;;;;;3.58;2.20;;;;;;;11.28;65.98;100044.91;4993530;28;20050;-62
2021/10/01 08:21:25;;;;;;;7.38;1.92;;;;;;;11.60;66.03;100013.31;4995157;28;20424;-62
2021/10/01 08:24:14;;;;;;;7.10;2.28;;;;;;;11.64;65.95;100027.19;4994831;28;20576;-63
2021/10/01 08:27:04;;;;;;;5.05;2.78;;;;;;;11.65;66.19;100013.34;4995169;28;20045;-63
2021/10/01 08:29:47;;;;;;;6.65;2.35;;;;;;;11.68;65.86;100006.47;4994453;28;20061;-63
2021/10/01 08:32:36;;;;;;;8.70;2.60;;;;;;;11.72;65.86;99999.59;4994198;28;20045;-63
2021/10/01 08:35:22;;;;;;;6.30;2.13;;;;;;;11.78;66.21;100002.25;4993976;28;20057;-63
2021/10/01 08:38:08;;;;;;;7.70;2.72;;;;;;;11.83;66.35;100004.91;4995310;28;20045;-63
2021/10/01 08:40:52;;;;;;;7.20;3.13;;;;;;;11.88;66.30;100003.19;4994687;28;20053;-63
2021/10/01 08:43:36;;;;;;;7.85;3.50;;;;;;;11.91;66.04;100002.38;4995351;28;20096;-63
2021/10/01 08:46:22;;;;;;;5.40;3.00;;;;;;;11.94;66.25;100010.19;4995159;28;20133;-65
2021/10/01 08:49:09;;;;;;;5.32;2.65;;;;;;;11.97;65.85;100005.03;4993879;28;20129;-63
2021/10/01 08:51:57;;;;;;;6.45;2.53;;;;;;;12.00;66.07;100000.75;4994262;28;20575;-63
2021/10/01 08:54:42;;;;;;;4.25;2.00;;;;;;;12.04;65.92;100009.47;4993914;28;20041;-63
2021/10/01 08:57:27;;;;;;;7.60;2.70;;;;;;;12.08;65.88;100008.63;4994403;28;20045;-63
2021/10/01 09:00:14;;;;;;;4.70;2.42;;;;;;;12.12;66.21;100001.75;4993549;28;20074;-63
2021/10/01 09:03:03;;;;;;;5.95;2.13;;;;;;;12.17;66.15;100007.84;4994634;28;20060;-63
2021/10/01 09:05:54;;;;;;;6.72;2.53;;;;;;;12.23;66.09;99997.50;4994551;28;20412;-64
2021/10/01 09:08:57;;;;;;;6.00;2.03;;;;;;;12.27;65.87;99999.28;4993405;28;20112;-63
2021/10/01 09:11:45;;;;;;;7.10;2.45;;;;;;;12.33;65.78;99998.47;4993746;28;20053;-65
2021/10/01 09:14:42;;;;;;;4.28;2.28;;;;;;;12.37;65.63;99994.16;4993444;28;20100;-63
2021/10/01 09:17:29;;;;;;;4.63;2.00;;;;;;;12.40;65.85;99979.44;4979678;28;20125;-63
2021/10/01 09:20:14;;;;;;;4.15;1.80;;;;;;;12.42;65.75;99988.13;4993230;28;20049;-64
2021/10/01 09:23:18;;;;;;;7.93;2.17;;;;;;;12.43;65.65;99983.81;4993936;28;20581;-63
2021/10/01 09:26:15;;;;;;;5.30;2.17;;;;;;;12.45;65.73;99969.97;4993419;28;20050;-63
2021/10/01 09:31:33;;;;;;;4.07;2.17;;;;;;;12.50;65.80;99977.78;5131901;27;20203;-63
2021/10/01 09:34:24;;;;;;;4.65;2.35;;;;;;;12.56;65.61;99971.75;5131969;28;20104;-64
2021/10/01 09:37:18;;;;;;;3.50;1.65;;;;;;;12.58;65.98;99968.31;5131436;28;20051;-64
2021/10/01 09:40:05;;;;;;;5.75;2.45;;;;;;;12.63;65.64;99963.16;5116266;28;20055;-63
2021/10/01 09:45:17;;;;;;;1.80;1.60;;;;;;;12.67;65.88;99983.09;5131759;27;20140;-63
2021/10/01 09:48:09;;;;;;;2.90;1.50;;;;;;;12.70;65.76;99962.31;5131443;28;20127;-63
2021/10/01 09:51:19;;;;;;;5.25;2.08;;;;;;;12.72;65.64;99975.34;5116653;28;20046;-63
2021/10/01 09:54:13;;;;;;;4.72;1.85;;;;;;;12.72;65.89;99970.13;5131743;28;20058;-64
2021/10/01 09:57:06;;;;;;;5.03;2.63;;;;;;;12.74;65.67;99958.88;5131879;28;20046;-63
2021/10/01 09:59:53;;;;;;;5.25;2.13;;;;;;;12.79;66.09;99957.16;5131609;28;20454;-62
2021/10/01 10:02:43;;;;;;;7.63;2.30;;;;;;;12.81;65.49;99969.31;5115679;28;20123;-64
2021/10/01 10:06:05;;;;;;;5.00;2.22;;;;;;;12.84;65.87;99958.94;5131757;28;20046;-63
2021/10/01 10:08:49;;;;;;;6.40;2.17;;;;;;;12.87;65.44;99954.63;5115883;28;20066;-64
2021/10/01 10:11:37;;;;;;;;;;;;;;;12.88;65.51;99952.88;5116760;28;20478;-64
2021/10/01 10:14:24;;;;;;;4.10;1.75;;;;;;;12.90;65.90;99964.16;5116395;28;19964;-64
2021/10/01 10:17:28;;;;;;;4.10;2.47;;;;;;;12.93;65.51;99953.78;5131193;28;20119;-63
2021/10/01 10:20:21;;;;;;;10.82;2.22;;;;;;;12.94;65.52;99945.09;5115727;28;20131;-63
2021/10/01 10:23:14;;;;;;;5.50;2.20;;;;;;;12.96;65.75;99956.41;5115856;28;20042;-63
2021/10/01 10:26:09;;;;;;;3.03;2.08;;;;;;;12.95;65.46;99942.50;5130928;28;20443;-64
2021/10/01 10:29:03;;;;;;;2.90;2.17;;;;;;;12.99;65.82;99937.31;5115812;28;20084;-64
2021/10/01 10:31:58;;;;;;;5.32;1.92;;;;;;;13.02;65.62;99927.78;5115512;28;20570;-63
2021/10/01 10:35:00;;;;;;;7.35;1.70;;;;;;;13.03;65.45;99926.91;5116061;28;20101;-63
2021/10/01 10:37:54;;;;;;;4.45;1.92;;;;;;;13.06;65.87;99918.28;5115045;28;20062;-64
2021/10/01 10:40:46;;;;;;;5.72;2.00;;;;;;;13.06;65.38;99915.69;5115885;28;20144;-63
2021/10/01 10:43:47;;;;;;;5.97;2.55;;;;;;;13.09;65.62;99918.28;5130462;28;20062;-63
2021/10/01 10:46:52;;;;;;;3.00;1.52;;;;;;;13.12;65.52;99904.41;5115087;28;20084;-63
2021/10/01 10:49:39;;;;;;;4.50;2.20;;;;;;;13.14;65.67;99900.09;5115338;28;20042;-63
2021/10/01 10:52:23;;;;;;;4.47;1.73;;;;;;;13.14;65.45;99898.34;5130327;28;20062;-63
2021/10/01 10:55:16;;;;;;;5.40;2.10;;;;;;;13.16;65.40;99916.56;5124547;28;20524;-63
2021/10/01 10:58:26;;;;;;;4.68;1.83;;;;;;;13.18;65.68;99901.81;5101279;28;20047;-63
2021/10/01 11:01:13;;;;;;;5.88;2.25;;;;;;;13.19;65.35;99899.25;5116363;28;20070;-63
2021/10/01 11:04:24;;;;;;;4.47;2.22;;;;;;;13.19;65.43;99913.97;5116533;28;20046;-63
2021/10/01 11:07:47;;;;;;;5.65;2.05;;;;;;;13.20;65.42;99907.91;5116698;28;20089;-63
2021/10/01 11:10:49;;;;;;;6.03;2.50;;;;;;;13.17;65.53;99894.88;5101035;28;20042;-63
2021/10/01 11:13:34;;;;;;;17.92;2.35;;;;;;;13.17;65.33;99903.56;5116591;28;20077;-63
2021/10/01 11:16:22;;;;;;;4.82;1.98;;;;;;;13.17;65.23;99893.16;5101326;28;20078;-63
2021/10/01 11:19:10;;;;;;;3.97;1.92;;;;;;;13.18;65.75;99891.41;5129966;27;20050;-64
2021/10/01 11:21:54;;;;;;;7.50;1.83;;;;;;;13.18;65.48;99902.72;5116296;28;20058;-63
2021/10/01 11:24:38;;;;;;;6.30;2.20;;;;;;;13.17;65.35;99898.38;5116462;28;20093;-63
2021/10/01 11:27:22;;;;;;;6.80;1.98;;;;;;;13.20;65.57;99894.91;5116390;28;20091;-64
2021/10/01 11:30:15;;;;;;;6.40;3.28;;;;;;;13.20;65.55;99881.88;5116509;28;20050;-63
2021/10/01 11:33:14;;;;;;;4.03;1.80;;;;;;;13.20;65.41;99895.78;5115932;28;20048;-63
2021/10/01 11:36:10;;;;;;;8.90;2.30;;;;;;;13.21;65.58;99887.13;5101036;28;20406;-64
2021/10/01 11:39:12;;;;;;;9.05;1.70;;;;;;;13.20;65.36;99877.56;5115620;28;20093;-63
2021/10/01 11:41:57;;;;;;;3.33;2.13;;;;;;;13.19;65.54;99882.75;5100115;28;20046;-64
2021/10/01 11:44:41;;;;;;;6.35;2.08;;;;;;;13.20;65.66;99889.69;5115746;28;20119;-63
2021/10/01 11:47:25;;;;;;;8.95;2.60;;;;;;;13.19;65.80;99883.63;5115922;28;20050;-63
2021/10/01 11:50:12;;;;;;;3.65;2.03;;;;;;;13.19;65.48;99895.75;5115791;28;20135;-64
2021/10/01 11:52:58;;;;;;;5.40;2.15;;;;;;;13.18;65.44;99902.72;5100508;28;20505;-63
2021/10/01 11:55:52;;;;;;;7.10;2.25;;;;;;;13.21;65.78;99883.63;5100583;28;20054;-62
2021/10/01 11:58:42;;;;;;;4.90;1.52;;;;;;;13.19;65.17;99870.63;5115648;28;20047;-63
2021/10/01 12:01:29;;;;;;;7.10;2.40;;;;;;;13.21;65.43;99873.22;5100189;28;20103;-63
2021/10/01 12:04:34;;;;;;;5.07;1.80;;;;;;;13.22;65.59;99872.34;5099627;28;20088;-63
2021/10/01 12:07:19;;;;;;;3.92;1.65;;;;;;;13.21;65.36;99879.31;5098811;28;20100;-64
2021/10/01 12:10:16;;;;;;;6.75;2.60;;;;;;;13.24;65.63;99870.63;5115729;28;20085;-64
2021/10/01 12:13:04;;;;;;;6.57;2.28;;;;;;;13.25;65.48;99854.16;5100336;28;20055;-63
2021/10/01 12:15:57;;;;;;;2.47;1.75;;;;;;;13.26;65.61;99858.50;5115274;28;20042;-63
2021/10/01 12:18:54;;;;;;;6.43;2.70;;;;;;;13.27;65.53;99856.75;5099655;28;20050;-64
2021/10/01 12:21:38;;;;;;;7.80;2.38;;;;;;;13.27;65.29;99861.94;5099851;28;20456;-63
2021/10/01 12:24:31;;;;;;;10.05;2.17;;;;;;;13.26;65.29;99853.28;5099556;28;20089;-64
2021/10/01 12:27:30;;;;;;;4.57;2.22;;;;;;;13.26;65.39;99855.88;5100028;28;20582;-64
2021/10/01 12:30:22;;;;;;;7.47;1.95;;;;;;;13.27;65.62;99844.63;5115142;28;20126;-64
2021/10/01 12:33:10;;;;;;;7.03;2.08;;;;;;;13.26;65.56;99853.28;5099374;28;20042;-63
2021/10/01 12:36:04;;;;;;;4.28;1.90;;;;;;;13.27;65.42;99844.63;5115188;28;20520;-64
2021/10/01 12:38:51;;;;;;;5.05;1.98;;;;;;;13.27;65.62;99835.91;5099796;28;20042;-64
2021/10/01 12:41:36;;;;;;;3.80;1.88;;;;;;;13.27;65.61;99834.19;5114862;28;20099;-63
2021/10/01 12:44:20;;;;;;;5.68;2.38;;;;;;;13.27;65.45;99846.31;5098895;28;20121;-64
2021/10/01 12:47:20;;;;;;;6.68;2.10;;;;;;;13.28;65.34;99837.66;5114808;28;20042;-63
2021/10/01 12:50:09;;;;;;;2.92;2.13;;;;;;;13.29;65.62;99832.47;5114207;28;20108;-63
2021/10/01 12:52:56;;;;;;;4.13;1.95;;;;;;;13.31;65.32;99845.47;5114810;28;20058;-63
2021/10/01 12:55:44;;;;;;;6.47;2.22;;;;;;;13.31;65.69;99832.47;5099614;28;20131;-63
2021/10/01 12:58:47;;;;;;;4.45;2.28;;;;;;;13.31;65.52;99835.06;5098908;28;20144;-64
2021/10/01 13:01:32;;;;;;;3.03;1.70;;;;;;;13.31;65.63;99833.34;5099040;28;20131;-63
2021/10/01 13:04:42;;;;;;;3.65;1.70;;;;;;;13.33;65.57;99834.19;5114392;28;20047;-63
2021/10/01 13:07:33;;;;;;;4.07;2.00;;;;;;;13.33;65.76;99838.53;5099091;28;20096;-63
2021/10/01 13:10:38;;;;;;;5.82;2.05;;;;;;;13.34;65.52;99842.88;5099018;28;20100;-63
2021/10/01 13:13:28;;;;;;;6.97;2.72;;;;;;;13.34;65.75;99841.13;5098966;28;20517;-63
2021/10/01 13:16:13;;;;;;;4.45;2.47;;;;;;;13.34;65.58;99830.72;5098784;28;20043;-63
2021/10/01 13:19:05;;;;;;;9.27;2.67;;;;;;;13.36;65.74;99822.94;5114185;28;20130;-64
2021/10/01 13:22:00;;;;;;;4.25;2.35;;;;;;;13.37;65.52;99825.53;5098677;28;20050;-64
2021/10/01 13:25:02;;;;;;;10.43;3.30;;;;;;;13.37;65.50;99817.72;5098337;28;20108;-63
2021/10/01 13:27:54;;;;;;;9.13;2.33;;;;;;;13.37;65.72;99817.72;5085799;28;20058;-63
2021/10/01 13:30:49;;;;;;;6.88;2.03;;;;;;;13.38;65.64;99816.84;5098798;28;20113;-64
2021/10/01 13:33:42;;;;;;;2.95;1.73;;;;;;;13.38;65.63;99810.78;5098881;28;20051;-63
2021/10/01 13:36:31;;;;;;;5.38;2.00;;;;;;;13.38;65.26;99806.44;5098746;28;20046;-63
2021/10/01 13:39:16;;;;;;;4.68;2.35;;;;;;;13.38;65.72;99796.03;5098791;28;20127;-63
2021/10/01 13:42:00;;;;;;;8.02;2.25;;;;;;;13.39;65.65;99791.72;5114315;28;20115;-63
2021/10/01 13:44:46;;;;;;;2.72;1.80;;;;;;;13.40;65.57;99793.44;5098784;28;20505;-63
2021/10/01 13:47:34;;;;;;;2.92;1.85;;;;;;;13.39;65.50;99789.97;5098742;28;20541;-64
2021/10/01 13:50:21;;;;;;;5.57;2.13;;;;;;;13.40;65.48;99790.84;5098869;28;20058;-63
2021/10/01 13:53:07;;;;;;;3.17;2.00;;;;;;;13.42;65.62;99793.47;5098451;28;20074;-63
2021/10/01 13:55:52;;;;;;;3.78;1.80;;;;;;;13.40;65.61;99783.94;5113735;28;20073;-63
2021/10/01 13:58:36;;;;;;;4.32;2.03;;;;;;;13.40;65.77;99778.72;5098779;28;20050;-63
2021/10/01 14:01:20;;;;;;;3.65;2.10;;;;;;;13.40;65.77;99776.13;5113630;28;20118;-64
2021/10/01 14:04:06;;;;;;;4.85;1.70;;;;;;;13.41;65.69;99771.75;5113417;28;20085;-63
2021/10/01 14:06:50;;;;;;;5.40;2.45;;;;;;;13.40;65.83;99772.63;5098501;28;20047;-63
2021/10/01 14:09:37;;;;;;;9.07;2.22;;;;;;;13.42;65.84;99760.47;5113464;28;20046;-63
2021/10/01 14:12:21;;;;;;;8.30;2.70;;;;;;;13.42;65.59;99764.84;5113804;28;20055;-64
2021/10/01 14:15:05;;;;;;;5.35;2.10;;;;;;;13.41;65.60;99748.34;5113589;28;20105;-63
2021/10/01 14:17:49;;;;;;;;;;;;;;;13.40;65.60;99749.19;5098920;28;20112;-64
2021/10/01 14:20:36;;;;;;;3.40;1.95;;;;;;;13.39;65.49;99752.66;5113749;28;19919;-63
2021/10/01 14:23:24;;;;;;;5.43;2.33;;;;;;;13.38;65.34;99746.56;5098535;28;20088;-63
2021/10/01 14:26:08;;;;;;;3.60;2.10;;;;;;;13.38;65.79;99743.13;5113356;28;20135;-63
2021/10/01 14:28:55;;;;;;;5.32;1.77;;;;;;;13.39;65.70;99739.66;5113615;28;20131;-63
2021/10/01 14:31:39;;;;;;;6.72;2.50;;;;;;;13.39;65.79;99740.50;5101234;28;20189;-63
2021/10/01 14:34:23;;;;;;;3.42;1.70;;;;;;;13.39;65.79;99734.44;5117422;28;20088;-63
2021/10/01 14:37:07;;;;;;;5.25;2.00;;;;;;;13.39;65.82;99743.09;5117657;28;20111;-63
2021/10/01 14:39:50;;;;;;;8.38;2.60;;;;;;;13.38;65.72;99725.75;5102298;28;20050;-63
2021/10/01 14:42:35;;;;;;;6.50;2.25;;;;;;;13.38;65.82;99732.72;5101483;28;20058;-63
2021/10/01 14:45:19;;;;;;;12.68;2.10;;;;;;;13.38;65.69;99745.72;5117377;28;20422;-64
2021/10/01 14:48:06;;;;;;;4.75;1.92;;;;;;;13.39;65.65;99744.88;5116768;28;20038;-63
2021/10/01 14:50:50;;;;;;;3.92;1.80;;;;;;;13.38;66.06;99733.56;5101873;28;20096;-62
2021/10/01 14:53:36;;;;;;;2.90;2.00;;;;;;;13.39;66.03;99739.66;5116983;28;20043;-64
2021/10/01 14:56:21;;;;;;;4.88;2.20;;;;;;;13.38;65.70;99740.53;5117176;28;20047;-64
2021/10/01 14:59:05;;;;;;;5.72;1.95;;;;;;;13.39;66.06;99727.50;5101700;28;20399;-63
2021/10/01 15:01:51;;;;;;;3.95;1.95;;;;;;;13.39;66.13;99719.69;5100875;28;20050;-63
2021/10/01 15:04:35;;;;;;;3.35;1.85;;;;;;;13.39;66.03;99729.25;5100962;28;20063;-64